Time;durP1;ratioP1;P1;durP2;ratioP2;P2;SDS_P1;SDS_P2;PMS_P1;PMS_P2;Temp;Humidity;BMP_temperature;BMP_pressure;BME280_temperature;BME280_humidity;BME280_pressure;Samples;Min_cycle;Max_cycle;Signal;HPM_P1;HPM_P2
2023/07/02 00:00:01;;;;;;;16.35;4.93;;;;;;;14.22;65.62;100388.41;4974135;28;20041;-47
2023/07/02 00:02:28;;;;;;;13.38;3.80;;;;;;;14.17;65.69;100383.97;4975597;28;20053;-47
2023/07/02 00:04:55;;;;;;;10.90;4.38;;;;;;;14.08;66.08;100391.03;4960378;28;20069;-46
2023/07/02 00:07:22;;;;;;;12.27;4.55;;;;;;;14.06;66.03;100382.25;4975678;28;20657;-44
2023/07/02 00:09:49;;;;;;;14.10;4.72;;;;;;;14.03;66.14;100373.47;4975159;28;20704;-48
2023/07/02 00:12:16;;;;;;;15.90;5.20;;;;;;;14.00;66.41;100379.00;4975307;28;20104;-47
2023/07/02 00:14:42;;;;;;;13.80;4.93;;;;;;;13.98;66.34;100376.56;4973825;28;20601;-47
2023/07/02 00:17:12;;;;;;;23.60;4.07;;;;;;;13.95;66.66;100379.31;4958669;28;20096;-45
2023/07/02 00:19:41;;;;;;;17.70;5.25;;;;;;;13.87;66.66;100374.84;4975041;28;20053;-46
2023/07/02 00:22:09;;;;;;;13.93;4.40;;;;;;;13.80;66.79;100381.09;4974182;28;20272;-47
2023/07/02 00:24:36;;;;;;;14.93;4.32;;;;;;;13.73;67.03;100375.44;4972436;28;20042;-50
2023/07/02 00:27:03;;;;;;;13.27;4.05;;;;;;;13.72;67.05;100375.78;4969582;28;20054;-47
2023/07/02 00:29:31;;;;;;;12.50;4.47;;;;;;;13.62;67.19;100368.91;4973579;28;20053;-47
2023/07/02 00:31:58;;;;;;;16.20;5.35;;;;;;;13.55;67.45;100388.28;4976618;28;22076;-47
2023/07/02 00:34:26;;;;;;;15.93;5.47;;;;;;;13.52;67.55;100377.91;4974980;28;20586;-48
2023/07/02 00:36:53;;;;;;;13.70;4.07;;;;;;;13.51;67.58;100383.81;4975137;28;20049;-45
2023/07/02 00:39:19;;;;;;;18.65;5.03;;;;;;;13.49;67.55;100381.41;4975323;28;20049;-49
2023/07/02 00:41:46;;;;;;;21.98;4.18;;;;;;;13.46;67.67;100387.72;4974149;28;20127;-47
2023/07/02 00:44:13;;;;;;;20.73;5.88;;;;;;;13.50;67.67;100387.78;4973854;28;20049;-49
2023/07/02 00:46:40;;;;;;;12.90;4.13;;;;;;;13.47;67.63;100389.34;4975269;28;20057;-48
2023/07/02 00:49:09;;;;;;;20.10;5.38;;;;;;;13.39;67.81;100388.44;4975224;28;20056;-44
2023/07/02 00:51:37;;;;;;;15.35;4.75;;;;;;;13.32;68.13;100388.28;4975366;28;20493;-47
2023/07/02 00:54:04;;;;;;;15.40;4.32;;;;;;;13.27;68.13;100390.56;4974946;28;20508;-47
2023/07/02 00:56:31;;;;;;;22.15;5.50;;;;;;;13.19;68.62;100383.28;4974888;28;20053;-45
2023/07/02 00:58:58;;;;;;;14.93;5.53;;;;;;;13.14;68.63;100380.81;4975257;28;20053;-44
2023/07/02 01:01:31;;;;;;;15.80;4.43;;;;;;;13.13;68.78;100384.78;4973744;28;20061;-45
2023/07/02 01:03:59;;;;;;;15.75;4.20;;;;;;;13.12;68.83;100389.53;4975513;28;20042;-46
2023/07/02 01:06:29;;;;;;;17.25;4.75;;;;;;;13.15;68.74;100388.81;4975258;28;20058;-45
2023/07/02 01:09:04;;;;;;;14.38;4.18;;;;;;;13.15;69.15;100385.22;4974846;28;20077;-48
2023/07/02 01:11:32;;;;;;;12.45;3.70;;;;;;;13.12;69.23;100388.75;4973305;28;20080;-47
2023/07/02 01:14:05;;;;;;;15.23;3.65;;;;;;;13.12;69.38;100395.09;4975236;28;20176;-46
2023/07/02 01:16:33;;;;;;;17.60;4.15;;;;;;;13.14;69.46;100386.38;4974813;28;21448;-48
2023/07/02 01:19:06;;;;;;;15.65;4.35;;;;;;;13.19;69.45;100391.63;4974611;28;20045;-44
2023/07/02 01:21:33;;;;;;;13.43;3.78;;;;;;;13.22;69.28;100386.13;4975204;28;20038;-46
2023/07/02 01:24:01;;;;;;;15.10;4.18;;;;;;;13.22;69.50;100386.13;4974810;28;20147;-48
2023/07/02 01:26:34;;;;;;;10.75;5.13;;;;;;;13.21;69.76;100392.09;4974066;28;20131;-46
2023/07/02 01:29:14;;;;;;;14.90;5.97;;;;;;;13.18;70.06;100392.81;4975394;28;20160;-46
2023/07/02 01:31:41;;;;;;;11.35;4.07;;;;;;;13.13;69.99;100395.91;4975124;28;20606;-44
2023/07/02 01:34:09;;;;;;;14.13;4.53;;;;;;;13.12;69.99;100400.66;4974053;28;21933;-44
2023/07/02 01:36:35;;;;;;;12.15;4.43;;;;;;;13.08;70.26;100388.66;4974839;28;20093;-46
2023/07/02 01:39:03;;;;;;;16.27;4.82;;;;;;;13.06;70.27;100401.31;4975391;28;20061;-50
2023/07/02 01:41:29;;;;;;;11.32;3.65;;;;;;;13.03;70.45;100396.47;4974911;28;20061;-47
2023/07/02 01:43:56;;;;;;;13.93;4.90;;;;;;;12.98;70.81;100400.38;4974479;28;21161;-45
2023/07/02 01:46:23;;;;;;;15.32;5.07;;;;;;;12.95;70.62;100403.06;4975459;28;20057;-47
2023/07/02 01:48:49;;;;;;;13.38;3.47;;;;;;;12.91;71.17;100405.81;4976886;28;20038;-45
2023/07/02 01:51:16;;;;;;;11.10;3.38;;;;;;;12.89;71.15;100397.06;4978472;28;20514;-44
2023/07/02 01:53:43;;;;;;;10.75;3.90;;;;;;;12.80;71.35;100399.25;4978829;28;20559;-47
2023/07/02 01:56:10;;;;;;;6.93;3.25;;;;;;;12.74;71.67;100395.97;4976987;28;20504;-44
2023/07/02 01:58:36;;;;;;;17.58;4.65;;;;;;;12.72;71.63;100398.31;4978225;28;20042;-48
2023/07/02 02:01:04;;;;;;;17.05;3.80;;;;;;;12.69;71.86;100399.03;4976195;28;20069;-48
2023/07/02 02:03:31;;;;;;;11.30;3.95;;;;;;;12.68;72.03;100391.09;4983322;28;20054;-46
2023/07/02 02:05:58;;;;;;;17.73;6.25;;;;;;;12.65;72.23;100392.63;4980696;28;20148;-45
2023/07/02 02:08:25;;;;;;;11.02;4.18;;;;;;;12.65;72.33;100398.19;4977848;28;20077;-44
2023/07/02 02:10:51;;;;;;;17.17;4.63;;;;;;;12.64;72.24;100396.56;4982077;28;20111;-46
2023/07/02 02:13:18;;;;;;;15.63;3.67;;;;;;;12.63;72.36;100400.50;4981881;28;20601;-44
2023/07/02 02:15:45;;;;;;;15.73;4.20;;;;;;;12.63;72.46;100381.06;4982013;28;20054;-48
2023/07/02 02:18:12;;;;;;;15.50;3.63;;;;;;;12.63;72.73;100392.19;4980971;28;20076;-45
2023/07/02 02:20:39;;;;;;;18.85;3.70;;;;;;;12.66;72.56;100388.66;4995037;28;20054;-44
2023/07/02 02:23:06;;;;;;;12.18;4.22;;;;;;;12.67;72.76;100389.47;5010765;28;20087;-44
2023/07/02 02:25:33;;;;;;;12.75;3.70;;;;;;;12.67;72.91;100397.81;5010037;28;20077;-44
2023/07/02 02:27:59;;;;;;;24.10;4.80;;;;;;;12.68;72.99;100391.88;5010319;28;20081;-44
2023/07/02 02:30:26;;;;;;;14.75;4.63;;;;;;;12.71;73.02;100399.47;5009440;28;20046;-43
2023/07/02 02:32:53;;;;;;;12.23;4.43;;;;;;;12.78;73.02;100407.97;5013120;28;20046;-44
2023/07/02 02:35:20;;;;;;;14.55;4.78;;;;;;;12.78;73.06;100396.03;5007534;28;20073;-44
2023/07/02 02:37:46;;;;;;;11.70;4.25;;;;;;;12.80;72.89;100402.03;5013100;28;20045;-45
2023/07/02 02:40:13;;;;;;;16.05;3.60;;;;;;;12.81;73.10;100396.09;5008640;28;20400;-48
2023/07/02 02:42:40;;;;;;;17.88;4.30;;;;;;;12.87;73.27;100399.38;5008902;28;20104;-49
2023/07/02 02:45:07;;;;;;;12.05;3.80;;;;;;;12.90;73.04;100393.06;5011356;28;20464;-44
2023/07/02 02:47:34;;;;;;;18.08;4.28;;;;;;;12.93;73.10;100397.09;5008703;28;20030;-45
2023/07/02 02:50:01;;;;;;;13.05;4.53;;;;;;;12.97;73.11;100404.34;5005285;28;20048;-44
2023/07/02 02:52:27;;;;;;;10.73;3.40;;;;;;;12.99;73.06;100395.63;4989354;28;20045;-44
2023/07/02 02:54:54;;;;;;;12.32;3.83;;;;;;;12.98;73.15;100394.00;5010782;28;20544;-44
2023/07/02 02:57:21;;;;;;;16.83;3.30;;;;;;;13.00;73.46;100397.25;5011528;28;20070;-44
2023/07/02 02:59:48;;;;;;;7.78;2.85;;;;;;;12.98;73.32;100391.22;5012300;28;20042;-44
2023/07/02 03:02:14;;;;;;;17.98;3.65;;;;;;;12.98;73.32;100392.03;5087607;22;20082;-44
2023/07/02 03:04:45;;;;;;;17.85;3.10;;;;;;;12.94;73.25;100382.84;5050871;28;20132;-44
2023/07/02 03:07:11;;;;;;;15.70;3.40;;;;;;;12.92;73.30;100387.16;5050747;28;20040;-44
2023/07/02 03:09:38;;;;;;;9.57;3.13;;;;;;;12.84;73.23;100380.66;5050213;28;20053;-45
2023/07/02 03:12:06;;;;;;;15.90;3.47;;;;;;;12.80;73.04;100380.59;5053837;28;20051;-45
2023/07/02 03:14:33;;;;;;;14.25;3.47;;;;;;;12.73;73.36;100380.47;5057525;28;20045;-44
2023/07/02 03:17:01;;;;;;;17.90;3.70;;;;;;;12.64;73.79;100377.13;5047494;28;20044;-44
2023/07/02 03:19:28;;;;;;;19.38;3.85;;;;;;;12.64;73.63;100373.53;5048458;28;20037;-45
2023/07/02 03:21:55;;;;;;;13.23;3.05;;;;;;;12.59;73.83;100371.88;5048678;28;20649;-45
2023/07/02 03:24:21;;;;;;;12.32;3.03;;;;;;;12.57;73.90;100378.97;5051706;28;20075;-48
2023/07/02 03:26:48;;;;;;;19.52;4.32;;;;;;;12.50;74.03;100379.63;5049977;28;20506;-45
2023/07/02 03:29:15;;;;;;;15.60;3.53;;;;;;;12.46;74.09;100367.66;5052178;28;20049;-45
2023/07/02 03:31:42;;;;;;;13.68;3.72;;;;;;;12.45;74.30;100365.22;5050420;28;20183;-44
2023/07/02 03:34:09;;;;;;;13.18;3.22;;;;;;;12.46;74.14;100364.88;5051572;28;20066;-46
2023/07/02 03:36:37;;;;;;;12.82;3.03;;;;;;;12.46;74.06;100366.84;5049926;28;20619;-44
2023/07/02 03:39:04;;;;;;;10.77;3.55;;;;;;;12.42;74.20;100369.53;5050466;28;20494;-48
2023/07/02 03:41:36;;;;;;;11.98;2.97;;;;;;;12.41;74.18;100365.19;5050693;28;20061;-45
2023/07/02 03:44:02;;;;;;;15.57;3.58;;;;;;;12.43;74.37;100364.81;5032742;28;20056;-44
2023/07/02 03:46:30;;;;;;;14.48;4.32;;;;;;;12.43;74.35;100357.28;5050966;28;20075;-46
2023/07/02 03:48:57;;;;;;;10.75;3.80;;;;;;;12.41;74.45;100364.38;5049685;28;20043;-44
2023/07/02 03:51:24;;;;;;;13.48;2.88;;;;;;;12.40;74.47;100366.34;5049564;28;20498;-45
2023/07/02 03:53:51;;;;;;;14.35;3.17;;;;;;;12.43;74.77;100371.16;5052357;28;20040;-44
2023/07/02 03:56:18;;;;;;;17.42;3.15;;;;;;;12.43;74.60;100365.63;5051489;28;20514;-44
2023/07/02 03:58:45;;;;;;;12.05;4.72;;;;;;;12.47;74.64;100369.25;5050311;28;20083;-45
2023/07/02 04:01:11;;;;;;;11.48;2.55;;;;;;;12.51;74.84;100359.03;5050696;28;20103;-44
2023/07/02 04:03:51;;;;;;;18.25;3.17;;;;;;;12.59;74.76;100366.31;5054367;28;20053;-44
2023/07/02 04:06:18;;;;;;;13.50;3.15;;;;;;;12.67;74.71;100367.25;5030938;28;20498;-45
2023/07/02 04:08:45;;;;;;;6.50;2.92;;;;;;;12.67;74.71;100359.72;5050699;28;20067;-44
2023/07/02 04:11:12;;;;;;;12.65;2.80;;;;;;;12.69;74.72;100368.50;5035570;28;20033;-44
2023/07/02 04:13:39;;;;;;;17.25;3.97;;;;;;;12.73;74.73;100366.56;5051147;28;20063;-44
2023/07/02 04:16:06;;;;;;;11.60;3.67;;;;;;;12.77;74.66;100358.31;5045547;28;20057;-46
2023/07/02 04:18:33;;;;;;;12.73;3.30;;;;;;;12.80;74.63;100366.72;5050925;28;20507;-44
2023/07/02 04:21:01;;;;;;;18.15;3.63;;;;;;;12.80;74.76;100366.72;5040196;28;20486;-48
2023/07/02 04:23:28;;;;;;;12.85;2.78;;;;;;;12.81;74.61;100365.53;5049686;28;20048;-44
2023/07/02 04:25:55;;;;;;;14.68;4.00;;;;;;;12.87;74.73;100359.69;5051457;28;20047;-45
2023/07/02 04:28:42;;;;;;;12.13;2.97;;;;;;;12.91;74.58;100358.56;5050904;28;20049;-45
2023/07/02 04:31:09;;;;;;;19.05;3.30;;;;;;;12.95;74.47;100361.41;5051114;28;20055;-44
2023/07/02 04:33:36;;;;;;;13.52;2.72;;;;;;;12.96;74.40;100369.38;5050166;28;20049;-46
2023/07/02 04:36:03;;;;;;;13.13;2.88;;;;;;;12.99;74.58;100373.41;5050371;28;20048;-44
2023/07/02 04:38:30;;;;;;;9.20;2.70;;;;;;;13.00;74.41;100366.69;5049393;28;20049;-44
2023/07/02 04:41:05;;;;;;;14.63;3.85;;;;;;;13.02;74.29;100367.09;5052639;28;20515;-44
2023/07/02 04:43:33;;;;;;;13.45;2.88;;;;;;;13.05;74.42;100363.59;5049845;28;20091;-44
2023/07/02 04:46:00;;;;;;;16.90;2.90;;;;;;;13.03;74.32;100363.13;5026967;28;20059;-44
2023/07/02 04:48:27;;;;;;;14.07;2.33;;;;;;;13.04;74.32;100367.53;5051411;28;20509;-44
2023/07/02 04:50:54;;;;;;;11.90;3.13;;;;;;;13.04;74.14;100368.34;5044916;28;20040;-44
2023/07/02 04:53:21;;;;;;;15.10;3.88;;;;;;;13.04;74.09;100370.31;5048756;28;20048;-44
2023/07/02 04:55:47;;;;;;;11.10;3.25;;;;;;;13.06;74.04;100367.94;5049123;28;20037;-45
2023/07/02 04:58:15;;;;;;;12.98;3.25;;;;;;;13.09;74.16;100356.94;5049019;28;20081;-45
2023/07/02 05:00:42;;;;;;;12.48;3.47;;;;;;;13.12;74.03;100358.16;5032032;28;20041;-46
2023/07/02 05:03:09;;;;;;;16.25;3.25;;;;;;;13.12;73.91;100364.53;5031486;28;20449;-44
2023/07/02 05:05:36;;;;;;;15.73;2.80;;;;;;;13.12;74.01;100367.31;5032258;28;20091;-46
2023/07/02 05:08:04;;;;;;;8.02;2.28;;;;;;;13.11;74.14;100368.47;5047877;28;20045;-44
2023/07/02 05:10:32;;;;;;;11.70;3.15;;;;;;;13.18;73.92;100370.59;5049517;28;20049;-44
2023/07/02 05:12:58;;;;;;;14.07;2.45;;;;;;;13.18;73.87;100376.16;5050897;28;20049;-46
2023/07/02 05:15:26;;;;;;;16.50;2.72;;;;;;;13.19;73.94;100366.63;5045593;28;20079;-45
2023/07/02 05:17:53;;;;;;;18.52;3.22;;;;;;;13.22;73.85;100371.44;5050804;28;20033;-44
2023/07/02 05:20:20;;;;;;;11.73;4.10;;;;;;;13.26;73.73;100383.44;5047006;28;20099;-44
2023/07/02 05:22:46;;;;;;;12.77;2.85;;;;;;;13.27;73.59;100380.25;5056479;28;20044;-44
2023/07/02 05:25:13;;;;;;;7.57;2.45;;;;;;;13.29;73.52;100374.34;5036441;28;20124;-44
2023/07/02 05:27:40;;;;;;;13.73;2.63;;;;;;;13.29;73.73;100377.13;5054457;28;20044;-44
2023/07/02 05:30:07;;;;;;;6.22;2.08;;;;;;;13.32;73.71;100368.03;5054197;28;20143;-44
2023/07/02 05:32:34;;;;;;;9.50;2.35;;;;;;;13.35;73.63;100367.28;5054736;28;20247;-44
2023/07/02 05:35:01;;;;;;;14.43;3.28;;;;;;;13.37;73.41;100364.91;5054182;28;20132;-47
2023/07/02 05:37:28;;;;;;;11.23;3.20;;;;;;;13.43;73.55;100366.22;5052878;28;20071;-44
2023/07/02 05:39:54;;;;;;;14.52;2.97;;;;;;;13.47;73.30;100366.28;5053393;28;20049;-46
2023/07/02 05:42:21;;;;;;;12.15;2.15;;;;;;;13.47;73.18;100372.66;5036291;28;20508;-46
2023/07/02 05:44:49;;;;;;;17.23;4.28;;;;;;;13.49;73.00;100373.06;5050435;28;20044;-44
2023/07/02 05:47:16;;;;;;;14.05;3.90;;;;;;;13.48;73.09;100371.47;5053854;28;20114;-44
2023/07/02 05:49:43;;;;;;;18.13;3.38;;;;;;;13.48;73.11;100379.81;5053566;28;20033;-45
2023/07/02 05:52:09;;;;;;;11.10;2.60;;;;;;;13.48;73.07;100374.25;5053949;28;20048;-44
2023/07/02 05:54:40;;;;;;;14.38;2.65;;;;;;;13.48;72.93;100374.25;5053533;28;20067;-46
2023/07/02 05:57:07;;;;;;;8.75;2.28;;;;;;;13.51;72.99;100381.03;5053675;28;20041;-45
2023/07/02 05:59:34;;;;;;;18.10;2.83;;;;;;;13.52;73.08;100377.91;5035711;28;20499;-45
2023/07/02 06:02:01;;;;;;;13.38;2.97;;;;;;;13.53;73.00;100371.13;5053448;28;20053;-44
2023/07/02 06:04:27;;;;;;;16.75;4.18;;;;;;;13.57;73.06;100372.00;5053633;28;20051;-44
2023/07/02 06:06:54;;;;;;;17.85;3.30;;;;;;;13.63;72.91;100364.97;5053147;28;20052;-44
2023/07/02 06:09:21;;;;;;;10.07;2.55;;;;;;;13.67;72.92;100376.94;5053236;28;20045;-44
2023/07/02 06:11:48;;;;;;;14.25;3.65;;;;;;;13.72;72.93;100370.22;5053683;28;20045;-44
2023/07/02 06:14:15;;;;;;;14.23;2.72;;;;;;;13.76;72.78;100383.03;5053033;28;20110;-45
2023/07/02 06:16:42;;;;;;;9.48;2.63;;;;;;;13.80;72.50;100374.72;5036630;28;20053;-46
2023/07/02 06:19:08;;;;;;;16.83;2.85;;;;;;;13.86;72.65;100374.03;5053254;28;20052;-44
2023/07/02 06:21:36;;;;;;;13.05;2.70;;;;;;;13.93;72.58;100379.69;5051368;28;20048;-45
2023/07/02 06:24:03;;;;;;;28.20;3.67;;;;;;;14.00;72.56;100373.44;5053417;28;20059;-45
2023/07/02 06:26:31;;;;;;;12.25;2.33;;;;;;;14.12;72.19;100380.72;5053122;28;20037;-44
2023/07/02 06:28:59;;;;;;;11.90;3.30;;;;;;;14.22;72.20;100374.47;5056694;28;20091;-47
2023/07/02 06:31:26;;;;;;;19.05;3.72;;;;;;;14.30;71.89;100376.19;5047903;28;20083;-44
2023/07/02 06:33:53;;;;;;;7.15;2.38;;;;;;;14.39;71.88;100358.03;5055233;28;20076;-46
2023/07/02 06:36:19;;;;;;;14.80;3.00;;;;;;;14.40;71.63;100359.63;5051352;28;20103;-44
2023/07/02 06:38:46;;;;;;;10.65;2.53;;;;;;;14.47;71.56;100365.31;5053510;28;20041;-44
2023/07/02 06:41:13;;;;;;;12.45;3.58;;;;;;;14.50;71.29;100363.75;5047831;28;20040;-46
2023/07/02 06:43:42;;;;;;;10.80;2.15;;;;;;;14.50;70.92;100360.94;5050232;28;20116;-45
2023/07/02 06:46:10;;;;;;;8.63;2.58;;;;;;;14.50;70.84;100366.53;5050162;28;20474;-45
2023/07/02 06:48:37;;;;;;;19.88;3.30;;;;;;;14.51;70.72;100370.91;5048664;28;20071;-44
2023/07/02 06:51:04;;;;;;;13.00;3.35;;;;;;;14.54;70.52;100367.34;5050236;28;20075;-44
2023/07/02 06:53:30;;;;;;;17.10;2.88;;;;;;;14.54;70.36;100370.13;5058698;28;20037;-44
2023/07/02 06:55:57;;;;;;;20.80;2.80;;;;;;;14.57;70.31;100363.81;5040698;28;20144;-45
2023/07/02 06:58:24;;;;;;;11.45;2.92;;;;;;;14.60;70.13;100366.63;5053059;28;20037;-44
2023/07/02 07:00:51;;;;;;;13.15;3.10;;;;;;;14.62;69.97;100367.06;5034315;28;20414;-44
2023/07/02 07:03:18;;;;;;;8.30;2.08;;;;;;;14.68;69.87;100369.50;5052466;28;20491;-44
2023/07/02 07:05:45;;;;;;;13.07;2.75;;;;;;;14.68;69.77;100367.50;5052434;28;20175;-45
2023/07/02 07:08:11;;;;;;;11.68;3.20;;;;;;;14.72;69.68;100373.91;5052617;28;20091;-52
2023/07/02 07:10:38;;;;;;;11.75;2.72;;;;;;;14.73;69.58;100369.94;5052124;28;20148;-45
2023/07/02 07:13:05;;;;;;;11.30;2.78;;;;;;;14.74;69.32;100374.34;5051368;28;20048;-45
2023/07/02 07:15:34;;;;;;;9.82;2.25;;;;;;;14.77;69.29;100376.38;5044916;28;20565;-44
2023/07/02 07:18:01;;;;;;;12.38;2.33;;;;;;;14.85;69.39;100377.25;5051951;28;20076;-46
2023/07/02 07:20:30;;;;;;;11.63;2.83;;;;;;;14.86;68.88;100374.06;5052333;28;20049;-45
2023/07/02 07:22:58;;;;;;;10.15;2.40;;;;;;;14.92;68.83;100375.34;5052179;28;20059;-45
2023/07/02 07:25:25;;;;;;;9.25;2.35;;;;;;;15.01;68.72;100377.81;5034089;28;20051;-47
2023/07/02 07:27:52;;;;;;;11.75;2.13;;;;;;;15.06;68.55;100381.03;5052240;28;20053;-45
2023/07/02 07:30:22;;;;;;;9.82;2.22;;;;;;;15.10;68.15;100370.72;5051674;28;20080;-45
2023/07/02 07:32:53;;;;;;;20.02;3.80;;;;;;;15.12;68.13;100373.91;5052632;28;20128;-47
2023/07/02 07:35:21;;;;;;;12.52;2.30;;;;;;;15.18;67.87;100368.78;5051879;28;20116;-45
2023/07/02 07:37:49;;;;;;;16.10;3.08;;;;;;;15.20;67.94;100372.00;5051871;28;20726;-44
2023/07/02 07:40:16;;;;;;;8.48;2.15;;;;;;;15.22;67.86;100381.56;5050760;28;20076;-45
2023/07/02 07:42:43;;;;;;;16.38;2.72;;;;;;;15.19;67.51;100376.78;5049954;28;20080;-48
2023/07/02 07:45:11;;;;;;;10.38;1.90;;;;;;;15.17;67.40;100373.56;5049281;28;20041;-45
2023/07/02 07:47:39;;;;;;;13.15;1.98;;;;;;;15.18;67.29;100382.72;5048341;28;20451;-50
2023/07/02 07:50:10;;;;;;;12.20;2.47;;;;;;;15.20;67.17;100378.38;5039456;28;20049;-45
2023/07/02 07:52:38;;;;;;;14.15;3.25;;;;;;;15.22;67.00;100367.63;5047082;28;20044;-50
2023/07/02 07:55:06;;;;;;;8.68;1.60;;;;;;;15.22;66.71;100367.63;5043126;28;20076;-48
2023/07/02 07:57:35;;;;;;;10.05;2.75;;;;;;;15.22;66.59;100362.03;5014949;28;21258;-48
2023/07/02 08:00:05;;;;;;;10.18;3.05;;;;;;;15.34;66.74;100371.31;5007197;28;21325;-46
2023/07/02 08:02:32;;;;;;;12.05;2.92;;;;;;;15.44;66.51;100357.44;5009258;28;20518;-48
2023/07/02 08:04:58;;;;;;;11.63;2.75;;;;;;;15.43;66.32;100360.63;4989681;28;20064;-44
2023/07/02 08:07:25;;;;;;;9.35;3.85;;;;;;;15.49;66.20;100359.13;5009096;28;20040;-46
2023/07/02 08:09:52;;;;;;;9.80;2.13;;;;;;;15.52;66.12;100373.09;5009775;28;20124;-48
2023/07/02 08:12:19;;;;;;;12.05;2.10;;;;;;;15.52;65.79;100369.50;5008879;28;20597;-46
2023/07/02 08:14:45;;;;;;;10.50;2.38;;;;;;;15.54;65.66;100367.13;5008739;28;20667;-49
2023/07/02 08:17:12;;;;;;;18.17;3.25;;;;;;;15.58;65.43;100379.09;5008349;28;20056;-48
2023/07/02 08:19:39;;;;;;;9.25;1.98;;;;;;;15.63;65.32;100375.94;5008462;28;20073;-48
2023/07/02 08:22:06;;;;;;;14.25;2.65;;;;;;;15.72;65.10;100373.63;5008521;28;20056;-52
2023/07/02 08:24:33;;;;;;;11.27;2.13;;;;;;;15.88;64.90;100370.53;5023351;28;20553;-45
2023/07/02 08:27:04;;;;;;;7.88;1.92;;;;;;;16.05;64.64;100376.22;5050691;28;20524;-46
2023/07/02 08:29:31;;;;;;;10.00;2.25;;;;;;;16.21;64.11;100365.53;5043692;28;20496;-47
2023/07/02 08:31:58;;;;;;;8.30;1.77;;;;;;;16.31;63.75;100373.13;5012842;28;20727;-45
2023/07/02 08:34:25;;;;;;;7.85;2.55;;;;;;;16.34;63.48;100366.78;5025100;28;20120;-46
2023/07/02 08:36:52;;;;;;;14.57;2.53;;;;;;;16.38;63.34;100361.22;5033207;28;20563;-45
2023/07/02 08:39:18;;;;;;;11.27;3.75;;;;;;;16.43;63.02;100367.22;5052524;28;20041;-47
2023/07/02 08:41:47;;;;;;;11.40;2.90;;;;;;;16.59;62.62;100363.28;5048994;28;20061;-47
2023/07/02 08:44:18;;;;;;;11.18;2.08;;;;;;;16.78;61.87;100358.16;5048623;28;20036;-45
2023/07/02 08:46:44;;;;;;;13.30;2.90;;;;;;;16.95;61.55;100362.16;5044503;28;20045;-45
2023/07/02 08:49:11;;;;;;;8.50;1.55;;;;;;;17.12;61.10;100361.41;5049896;28;20041;-45
2023/07/02 08:51:38;;;;;;;11.98;2.03;;;;;;;17.26;60.33;100361.38;5032727;28;20037;-45
2023/07/02 08:54:05;;;;;;;7.53;1.90;;;;;;;17.32;59.90;100365.38;5050359;28;20128;-47
2023/07/02 08:56:31;;;;;;;9.30;1.80;;;;;;;17.37;59.41;100356.59;5051531;28;20099;-45
2023/07/02 08:58:58;;;;;;;7.68;2.40;;;;;;;17.47;59.32;100358.59;5061263;28;20044;-46
2023/07/02 09:01:25;;;;;;;11.18;3.08;;;;;;;17.55;59.19;100360.22;5049550;28;20067;-45
2023/07/02 09:03:52;;;;;;;9.18;2.33;;;;;;;17.48;58.54;100370.56;5054160;28;20044;-45
2023/07/02 09:06:19;;;;;;;12.60;3.28;;;;;;;17.36;57.79;100371.00;5053838;28;20112;-45
2023/07/02 09:08:46;;;;;;;13.65;3.22;;;;;;;17.24;57.71;100363.78;5055499;28;20044;-45
2023/07/02 09:11:17;;;;;;;10.25;2.03;;;;;;;17.19;57.74;100372.59;5052993;28;20068;-47
2023/07/02 09:13:48;;;;;;;6.27;1.87;;;;;;;17.14;58.10;100359.00;5055802;28;20102;-46
2023/07/02 09:16:30;;;;;;;10.68;2.53;;;;;;;17.17;58.25;100355.41;5051094;28;20079;-46
2023/07/02 09:19:02;;;;;;;14.05;2.90;;;;;;;17.23;57.73;100351.03;5052494;28;20573;-45
2023/07/02 09:22:01;;;;;;;7.22;1.80;;;;;;;17.29;57.43;100354.22;5053095;28;20049;-45
2023/07/02 09:24:31;;;;;;;5.18;1.38;;;;;;;17.23;56.91;100345.44;5029291;28;20059;-45
2023/07/02 09:27:00;;;;;;;9.38;1.80;;;;;;;17.33;56.83;100352.22;5050526;28;20076;-46
2023/07/02 09:29:31;;;;;;;9.20;2.47;;;;;;;17.49;56.40;100347.81;5055058;28;20044;-46
2023/07/02 09:32:00;;;;;;;6.97;1.75;;;;;;;17.68;56.23;100349.41;5054745;28;20129;-45
2023/07/02 09:34:34;;;;;;;11.30;2.35;;;;;;;17.88;55.95;100346.94;5052899;28;20045;-45
2023/07/02 09:37:03;;;;;;;5.57;1.35;;;;;;;17.94;55.42;100343.34;5050554;28;20510;-46
2023/07/02 09:39:32;;;;;;;11.10;2.28;;;;;;;17.94;54.66;100336.94;5057191;28;20052;-45
2023/07/02 09:42:00;;;;;;;9.73;2.15;;;;;;;17.90;54.32;100350.13;5050718;28;20041;-46
2023/07/02 09:44:32;;;;;;;6.65;1.25;;;;;;;17.77;54.24;100340.56;5044876;28;20045;-45
2023/07/02 09:47:07;;;;;;;13.30;1.63;;;;;;;17.63;53.91;100345.00;5054189;28;20048;-45
2023/07/02 09:49:37;;;;;;;4.63;1.35;;;;;;;17.50;54.09;100349.38;5050160;28;20486;-44
2023/07/02 09:52:07;;;;;;;8.85;1.80;;;;;;;17.39;54.11;100337.44;5053517;28;20592;-45
2023/07/02 09:54:37;;;;;;;;;;;;;;;17.30;54.51;100334.22;5053617;28;20076;-51
2023/07/02 09:57:05;;;;;;;4.82;1.55;;;;;;;17.27;54.71;100340.63;5054492;28;19920;-48
2023/07/02 09:59:33;;;;;;;8.80;1.67;;;;;;;17.18;54.70;100331.84;5051891;28;20123;-45
2023/07/02 10:02:00;;;;;;;5.55;1.10;;;;;;;17.20;54.73;100339.81;5052533;28;20095;-44
2023/07/02 10:04:43;;;;;;;5.18;1.40;;;;;;;17.45;54.58;100330.19;5052191;28;20056;-45
2023/07/02 10:07:11;;;;;;;11.80;3.53;;;;;;;17.78;54.21;100336.59;5053425;28;20041;-45
2023/07/02 10:09:46;;;;;;;3.72;1.45;;;;;;;18.06;53.56;100316.88;5055691;28;20033;-46
2023/07/02 10:12:18;;;;;;;5.10;1.60;;;;;;;18.36;53.27;100328.38;5053624;28;20052;-45
2023/07/02 10:14:46;;;;;;;5.72;1.92;;;;;;;18.74;52.64;100315.38;5050027;28;20099;-48
2023/07/02 10:17:33;;;;;;;7.22;1.58;;;;;;;19.08;51.85;100321.94;5051591;28;20109;-45
2023/07/02 10:20:11;;;;;;;8.00;1.48;;;;;;;19.32;51.47;100315.31;5052688;28;20072;-45
2023/07/02 10:22:47;;;;;;;5.95;1.23;;;;;;;19.57;50.70;100328.31;5052550;28;20498;-44
2023/07/02 10:25:40;;;;;;;4.53;1.90;;;;;;;19.52;50.11;100331.59;5055289;28;20045;-47
2023/07/02 10:28:33;;;;;;;5.53;1.30;;;;;;;19.87;49.81;100325.63;5043258;28;20041;-48
2023/07/02 10:31:01;;;;;;;6.85;1.55;;;;;;;20.20;49.12;100326.84;5040903;28;20142;-47
2023/07/02 10:33:27;;;;;;;6.40;1.92;;;;;;;20.30;48.59;100320.31;5052133;28;20512;-46
2023/07/02 10:35:54;;;;;;;8.05;2.28;;;;;;;20.13;49.24;100326.91;5051752;28;20402;-44
2023/07/02 10:38:23;;;;;;;6.32;1.50;;;;;;;20.13;49.05;100327.72;5052669;28;20391;-46
2023/07/02 10:40:58;;;;;;;6.35;1.95;;;;;;;20.44;48.14;100323.72;5052209;28;20056;-44
2023/07/02 10:43:30;;;;;;;6.03;1.60;;;;;;;20.38;47.77;100325.44;5053558;28;20076;-45
2023/07/02 10:46:01;;;;;;;8.98;1.60;;;;;;;20.26;48.01;100322.34;5049958;28;20098;-44
2023/07/02 10:48:29;;;;;;;2.65;1.00;;;;;;;20.11;48.03;100318.09;5051506;28;20044;-44
2023/07/02 10:50:57;;;;;;;4.40;1.25;;;;;;;20.00;48.27;100319.03;5047328;28;20049;-45
2023/07/02 10:53:24;;;;;;;6.18;1.30;;;;;;;19.96;48.20;100321.06;5051347;28;20051;-44
2023/07/02 10:55:56;;;;;;;5.03;1.15;;;;;;;19.93;48.24;100312.72;5051423;28;20383;-44
2023/07/02 10:58:24;;;;;;;5.88;1.13;;;;;;;19.88;48.59;100316.75;5065271;28;20041;-44
2023/07/02 11:00:51;;;;;;;5.50;1.60;;;;;;;19.90;47.91;100314.34;5052369;28;20048;-46
2023/07/02 11:03:26;;;;;;;5.35;1.30;;;;;;;19.92;47.63;100309.09;5045490;28;20384;-46
2023/07/02 11:05:53;;;;;;;4.15;1.40;;;;;;;19.77;47.45;100299.25;5048240;28;20069;-46
2023/07/02 11:08:23;;;;;;;8.13;1.40;;;;;;;19.45;47.54;100307.19;5054597;28;20056;-47
2023/07/02 11:11:12;;;;;;;7.80;1.45;;;;;;;19.13;48.04;100301.03;5041373;28;20056;-45
2023/07/02 11:13:46;;;;;;;3.67;2.03;;;;;;;18.91;48.32;100310.81;5051823;28;20049;-44
2023/07/02 11:16:28;;;;;;;5.38;1.73;;;;;;;18.95;48.62;100311.59;5051457;28;20044;-45
2023/07/02 11:19:10;;;;;;;7.10;1.55;;;;;;;18.94;48.91;100308.00;5050589;28;20041;-44
2023/07/02 11:21:37;;;;;;;4.07;1.10;;;;;;;19.12;48.77;100303.03;5055284;28;20076;-45
2023/07/02 11:24:06;;;;;;;4.82;1.40;;;;;;;19.39;48.67;100300.44;5050701;28;20041;-47